Henderson Grove, Illinois
Current Conditions -  °F | °C
As of 4:15 PM on Thursday 23 Oct 2014 (Local Time) from KGBG Reporting Station
Overcast Overcast  
Wind Chill: 59°   Ceiling: 8500
Heat Index: 59°   Visibility: 10mi
Dew Point: 47°   Wind: 13mph
Humidity: 65%   Direction: 190°S
Pressure: 30.05"   Gusts: 16mph
Location:  40.9508°N, 90.3832°W
Report Text: KGBG 232115Z AUTO 19011G14KT 10SM OVC085 15/08 A3005 RMK AO2 T01480083
Loading
Personal Weather Stations






























Interactive Weather Map
Tropical Storm Tracking
New forecast layout! Learn more

10-Day Weather Forecast

Advertisements
Track Severe Weather on mobile